DAL7752 OTBD-KAUS
Flight info
| Callsign | DAL7752 |
|---|---|
| Flight time | N/A |
| Altitude | 34000 |
| Route | TUKDO/K0904F360 DCT NIVKU/N0496F380 DCT BABAM/M084F380 DCT FRINI/N0491F400 DCT XOLTO DCT BOMGE DCT FRAKS/N0478F410 DCT NACIR/N0486F430 |
| Aircraft | A359/H-SDE2E3GHIJ3J4J5LM1ORWXY/LB1D1 |
Departure
| Time | 2026-05-08 11:37 |
|---|---|
| Airport | Doha International Airport (OTBD) |
Arrival
| Time | N/A |
|---|---|
| Airport | Austin Bergstrom International Airport (KAUS) |
| Time | Latitude | Longitude | Altitude | Speed | Heading |
|---|---|---|---|---|---|
| 2026-05-08 11:26 | 25.26437 | 51.56189 | 32 ft | 4 kts | 142° |
| 2026-05-08 11:26 | 25.26458 | 51.56170 | 33 ft | 4 kts | 138° |
| 2026-05-08 11:26 | 25.26478 | 51.56150 | 33 ft | 4 kts | 139° |
| 2026-05-08 11:27 | 25.26497 | 51.56134 | 32 ft | 1 kts | 157° |
| 2026-05-08 11:27 | 25.26498 | 51.56134 | 32 ft | 0 kts | 158° |
| 2026-05-08 11:30 | 25.26497 | 51.56134 | 32 ft | 1 kts | 158° |
| 2026-05-08 11:30 | 25.26466 | 51.56148 | 34 ft | 8 kts | 158° |
| 2026-05-08 11:30 | 25.26390 | 51.56183 | 35 ft | 14 kts | 158° |
| 2026-05-08 11:31 | 25.26297 | 51.56224 | 34 ft | 14 kts | 158° |
| 2026-05-08 11:31 | 25.26204 | 51.56265 | 28 ft | 14 kts | 158° |
| 2026-05-08 11:31 | 25.26111 | 51.56305 | 29 ft | 14 kts | 158° |
| 2026-05-08 11:31 | 25.26019 | 51.56345 | 29 ft | 14 kts | 158° |
| 2026-05-08 11:32 | 25.25924 | 51.56387 | 29 ft | 15 kts | 158° |
| 2026-05-08 11:32 | 25.25829 | 51.56429 | 28 ft | 15 kts | 158° |
| 2026-05-08 11:32 | 25.25729 | 51.56473 | 28 ft | 16 kts | 158° |
| 2026-05-08 11:32 | 25.25619 | 51.56522 | 27 ft | 18 kts | 158° |
| 2026-05-08 11:33 | 25.25502 | 51.56574 | 26 ft | 18 kts | 158° |
| 2026-05-08 11:33 | 25.25379 | 51.56628 | 31 ft | 20 kts | 158° |
| 2026-05-08 11:33 | 25.25245 | 51.56688 | 30 ft | 21 kts | 158° |
| 2026-05-08 11:33 | 25.25103 | 51.56750 | 28 ft | 23 kts | 158° |
| 2026-05-08 11:34 | 25.24955 | 51.56815 | 29 ft | 23 kts | 158° |
| 2026-05-08 11:34 | 25.24807 | 51.56880 | 30 ft | 23 kts | 158° |
| 2026-05-08 11:34 | 25.24661 | 51.56944 | 29 ft | 23 kts | 158° |
| 2026-05-08 11:34 | 25.24516 | 51.57008 | 28 ft | 22 kts | 158° |
| 2026-05-08 11:35 | 25.24371 | 51.57073 | 25 ft | 23 kts | 158° |
| 2026-05-08 11:35 | 25.24231 | 51.57136 | 26 ft | 15 kts | 152° |
| 2026-05-08 11:35 | 25.24173 | 51.57212 | 25 ft | 13 kts | 110° |
| 2026-05-08 11:35 | 25.24178 | 51.57312 | 25 ft | 13 kts | 65° |
| 2026-05-08 11:36 | 25.24238 | 51.57326 | 25 ft | 6 kts | 342° |
| 2026-05-08 11:36 | 25.24240 | 51.57325 | 25 ft | 0 kts | 342° |
| 2026-05-08 11:36 | 25.24254 | 51.57320 | 24 ft | 13 kts | 341° |
| 2026-05-08 11:36 | 25.24517 | 51.57205 | 24 ft | 66 kts | 338° |
| 2026-05-08 11:37 | 25.25096 | 51.56950 | 26 ft | 112 kts | 338° |
| 2026-05-08 11:37 | 25.25957 | 51.56571 | 31 ft | 153 kts | 339° |
| 2026-05-08 11:37 | 25.27032 | 51.56070 | 254 ft | 169 kts | 339° |
| 2026-05-08 11:37 | 25.28055 | 51.55601 | 836 ft | 162 kts | 344° |
| 2026-05-08 11:38 | 25.29125 | 51.55150 | 1215 ft | 169 kts | 343° |
| 2026-05-08 11:38 | 25.30271 | 51.54659 | 1366 ft | 184 kts | 342° |
| 2026-05-08 11:38 | 25.31426 | 51.53912 | 1466 ft | 203 kts | 324° |
| 2026-05-08 11:38 | 25.32425 | 51.52733 | 1567 ft | 221 kts | 318° |
| 2026-05-08 11:39 | 25.33612 | 51.51725 | 1993 ft | 208 kts | 337° |
| 2026-05-08 11:39 | 25.34913 | 51.51104 | 2574 ft | 199 kts | 345° |
| 2026-05-08 11:39 | 25.36230 | 51.50690 | 2950 ft | 199 kts | 350° |
| 2026-05-08 11:39 | 25.37596 | 51.50378 | 3304 ft | 203 kts | 352° |
| 2026-05-08 11:40 | 25.39028 | 51.50099 | 3492 ft | 216 kts | 353° |
| 2026-05-08 11:40 | 25.40550 | 51.49795 | 3673 ft | 230 kts | 352° |
| 2026-05-08 11:40 | 25.42171 | 51.49445 | 3860 ft | 243 kts | 352° |
| 2026-05-08 11:40 | 25.43836 | 51.49059 | 4287 ft | 248 kts | 349° |
| 2026-05-08 11:41 | 25.45567 | 51.48648 | 4493 ft | 261 kts | 349° |
| 2026-05-08 11:41 | 25.47362 | 51.48208 | 4835 ft | 266 kts | 348° |
| 2026-05-08 11:41 | 25.49186 | 51.47754 | 5226 ft | 270 kts | 348° |
| 2026-05-08 11:41 | 25.51040 | 51.47294 | 5623 ft | 275 kts | 347° |
| 2026-05-08 11:42 | 25.52934 | 51.46963 | 6037 ft | 279 kts | 360° |
| 2026-05-08 11:42 | 25.54827 | 51.47466 | 6392 ft | 286 kts | 26° |
| 2026-05-08 11:42 | 25.56420 | 51.48788 | 6828 ft | 289 kts | 43° |
| 2026-05-08 11:42 | 25.57897 | 51.50295 | 7262 ft | 290 kts | 35° |
| 2026-05-08 11:43 | 25.59668 | 51.51368 | 7643 ft | 291 kts | 15° |
| 2026-05-08 11:43 | 25.61662 | 51.51652 | 8064 ft | 290 kts | 355° |
| 2026-05-08 11:43 | 25.63659 | 51.51366 | 8569 ft | 290 kts | 346° |
| 2026-05-08 11:43 | 25.65620 | 51.50811 | 9036 ft | 292 kts | 342° |
| 2026-05-08 11:44 | 25.67584 | 51.50173 | 9516 ft | 296 kts | 341° |
| 2026-05-08 11:44 | 25.69570 | 51.49534 | 9967 ft | 300 kts | 342° |
| 2026-05-08 11:44 | 25.71615 | 51.48920 | 10251 ft | 310 kts | 342° |
| 2026-05-08 11:44 | 25.73752 | 51.48323 | 10451 ft | 324 kts | 345° |
| 2026-05-08 11:45 | 25.75988 | 51.47739 | 10632 ft | 337 kts | 345° |
| 2026-05-08 11:45 | 25.78288 | 51.47161 | 11075 ft | 337 kts | 346° |
| 2026-05-08 11:45 | 25.80538 | 51.46611 | 11904 ft | 327 kts | 346° |
| 2026-05-08 11:45 | 25.82730 | 51.46076 | 12681 ft | 318 kts | 346° |
| 2026-05-08 11:46 | 25.84864 | 51.45556 | 13377 ft | 312 kts | 346° |
| 2026-05-08 11:46 | 25.86974 | 51.45035 | 13942 ft | 308 kts | 346° |
| 2026-05-08 11:46 | 25.89061 | 51.44515 | 14409 ft | 309 kts | 345° |
| 2026-05-08 11:46 | 25.91152 | 51.43990 | 14871 ft | 307 kts | 346° |
| 2026-05-08 11:47 | 25.93236 | 51.43468 | 15336 ft | 305 kts | 345° |
| 2026-05-08 11:47 | 25.95284 | 51.42955 | 15935 ft | 298 kts | 345° |
| 2026-05-08 11:47 | 25.97325 | 51.42443 | 16227 ft | 305 kts | 345° |
| 2026-05-08 11:47 | 25.99431 | 51.41912 | 16363 ft | 316 kts | 345° |
| 2026-05-08 11:48 | 26.01608 | 51.41368 | 16533 ft | 326 kts | 346° |
| 2026-05-08 11:48 | 26.03826 | 51.40811 | 16708 ft | 336 kts | 346° |
| 2026-05-08 11:48 | 26.06172 | 51.40222 | 16879 ft | 347 kts | 345° |
| 2026-05-08 11:48 | 26.08561 | 51.39620 | 17030 ft | 357 kts | 346° |
| 2026-05-08 11:49 | 26.11025 | 51.39001 | 17213 ft | 368 kts | 346° |
| 2026-05-08 11:49 | 26.13551 | 51.38366 | 17405 ft | 377 kts | 346° |
| 2026-05-08 11:49 | 26.16140 | 51.37716 | 17572 ft | 387 kts | 346° |
| 2026-05-08 11:49 | 26.18799 | 51.37049 | 17734 ft | 396 kts | 346° |
| 2026-05-08 11:50 | 26.21515 | 51.36367 | 17868 ft | 405 kts | 346° |
| 2026-05-08 11:50 | 26.24296 | 51.35669 | 18039 ft | 414 kts | 346° |
| 2026-05-08 11:50 | 26.27133 | 51.34956 | 18174 ft | 422 kts | 346° |
| 2026-05-08 11:50 | 26.30025 | 51.34228 | 18303 ft | 430 kts | 346° |
| 2026-05-08 11:51 | 26.32963 | 51.33489 | 18512 ft | 435 kts | 346° |
| 2026-05-08 11:51 | 26.35920 | 51.32745 | 18810 ft | 437 kts | 346° |
| 2026-05-08 11:51 | 26.38892 | 51.31997 | 19113 ft | 439 kts | 346° |
| 2026-05-08 11:51 | 26.41877 | 51.31245 | 19401 ft | 441 kts | 346° |
| 2026-05-08 11:52 | 26.44879 | 51.30488 | 19717 ft | 443 kts | 345° |
| 2026-05-08 11:52 | 26.47891 | 51.29727 | 20022 ft | 445 kts | 345° |
| 2026-05-08 11:52 | 26.50916 | 51.28963 | 20327 ft | 447 kts | 345° |
| 2026-05-08 11:52 | 26.53960 | 51.28194 | 20649 ft | 449 kts | 345° |
| 2026-05-08 11:53 | 26.56978 | 51.27430 | 20917 ft | 452 kts | 345° |
| 2026-05-08 11:53 | 26.60097 | 51.26641 | 21221 ft | 455 kts | 345° |
| 2026-05-08 11:53 | 26.63190 | 51.25858 | 21540 ft | 457 kts | 345° |
| 2026-05-08 11:53 | 26.66294 | 51.25071 | 21848 ft | 459 kts | 345° |
| 2026-05-08 11:54 | 26.69415 | 51.24280 | 22138 ft | 461 kts | 345° |
| 2026-05-08 11:54 | 26.72547 | 51.23486 | 22448 ft | 463 kts | 344° |
| 2026-05-08 11:54 | 26.75699 | 51.22686 | 22738 ft | 465 kts | 344° |
| 2026-05-08 11:54 | 26.78868 | 51.21881 | 23013 ft | 468 kts | 344° |
| 2026-05-08 11:55 | 26.82008 | 51.21083 | 23306 ft | 470 kts | 344° |
| 2026-05-08 11:55 | 26.85204 | 51.20271 | 23580 ft | 472 kts | 344° |
| 2026-05-08 11:55 | 26.88417 | 51.19454 | 23839 ft | 474 kts | 344° |
| 2026-05-08 11:55 | 26.91644 | 51.18633 | 24083 ft | 477 kts | 344° |
| 2026-05-08 11:56 | 26.94886 | 51.17807 | 24339 ft | 479 kts | 343° |
| 2026-05-08 11:56 | 26.98141 | 51.16978 | 24612 ft | 481 kts | 343° |
| 2026-05-08 11:56 | 27.01410 | 51.16145 | 24887 ft | 483 kts | 343° |
| 2026-05-08 11:56 | 27.04692 | 51.15307 | 25172 ft | 485 kts | 343° |
| 2026-05-08 11:57 | 27.07995 | 51.14464 | 25435 ft | 488 kts | 343° |
| 2026-05-08 11:57 | 27.11312 | 51.13617 | 25703 ft | 490 kts | 343° |
| 2026-05-08 11:57 | 27.14641 | 51.12766 | 25964 ft | 492 kts | 343° |
| 2026-05-08 11:57 | 27.17992 | 51.11909 | 26223 ft | 495 kts | 343° |
| 2026-05-08 11:58 | 27.21356 | 51.11048 | 26529 ft | 496 kts | 342° |
| 2026-05-08 11:58 | 27.24728 | 51.10185 | 26822 ft | 498 kts | 342° |
| 2026-05-08 11:58 | 27.28115 | 51.09318 | 27070 ft | 500 kts | 342° |
| 2026-05-08 11:59 | 27.34934 | 51.07568 | 27572 ft | 505 kts | 342° |
| 2026-05-08 11:59 | 27.38369 | 51.06686 | 27831 ft | 507 kts | 342° |
| 2026-05-08 11:59 | 27.41818 | 51.05800 | 28105 ft | 509 kts | 341° |
| 2026-05-08 11:59 | 27.45272 | 51.04914 | 28432 ft | 510 kts | 341° |
| 2026-05-08 12:00 | 27.48736 | 51.04024 | 28678 ft | 512 kts | 341° |
| 2026-05-08 12:00 | 27.52212 | 51.03129 | 28906 ft | 514 kts | 341° |
| 2026-05-08 12:00 | 27.55705 | 51.02228 | 29136 ft | 516 kts | 341° |
| 2026-05-08 12:00 | 27.59213 | 51.01324 | 29357 ft | 518 kts | 341° |
| 2026-05-08 12:01 | 27.62730 | 51.00417 | 29590 ft | 519 kts | 341° |
| 2026-05-08 12:01 | 27.66262 | 50.99506 | 29801 ft | 521 kts | 341° |
| 2026-05-08 12:01 | 27.69800 | 50.98593 | 29991 ft | 523 kts | 341° |
| 2026-05-08 12:01 | 27.73355 | 50.97674 | 30143 ft | 525 kts | 341° |
| 2026-05-08 12:02 | 27.76919 | 50.96753 | 30322 ft | 527 kts | 341° |
| 2026-05-08 12:02 | 27.80496 | 50.95828 | 30480 ft | 528 kts | 341° |
| 2026-05-08 12:02 | 27.84085 | 50.94899 | 30656 ft | 530 kts | 340° |
| 2026-05-08 12:02 | 27.87676 | 50.93970 | 30855 ft | 530 kts | 340° |
| 2026-05-08 12:03 | 27.91276 | 50.93037 | 31022 ft | 531 kts | 340° |
| 2026-05-08 12:03 | 27.93662 | 50.92419 | 31137 ft | 532 kts | 340° |
| 2026-05-08 12:03 | 27.98482 | 50.91169 | 31433 ft | 531 kts | 340° |
| 2026-05-08 12:03 | 28.02087 | 50.90233 | 31629 ft | 532 kts | 340° |
| 2026-05-08 12:04 | 28.04474 | 50.89613 | 31747 ft | 532 kts | 340° |
| 2026-05-08 12:04 | 28.08083 | 50.88675 | 31963 ft | 532 kts | 340° |
| 2026-05-08 12:04 | 28.11693 | 50.87735 | 32128 ft | 533 kts | 340° |
| 2026-05-08 12:04 | 28.15303 | 50.86795 | 32340 ft | 532 kts | 340° |
| 2026-05-08 12:05 | 28.18911 | 50.85855 | 32527 ft | 532 kts | 340° |
| 2026-05-08 12:05 | 28.22524 | 50.84913 | 32700 ft | 533 kts | 340° |
| 2026-05-08 12:05 | 28.26136 | 50.83970 | 32859 ft | 533 kts | 340° |
| 2026-05-08 12:05 | 28.29757 | 50.83024 | 33019 ft | 534 kts | 339° |
| 2026-05-08 12:06 | 28.33379 | 50.82077 | 33170 ft | 535 kts | 339° |
| 2026-05-08 12:06 | 28.37010 | 50.81127 | 33347 ft | 535 kts | 339° |
| 2026-05-08 12:06 | 28.40634 | 50.80179 | 33521 ft | 535 kts | 339° |
| 2026-05-08 12:06 | 28.44263 | 50.79229 | 33683 ft | 535 kts | 339° |
| 2026-05-08 12:07 | 28.47891 | 50.78279 | 33832 ft | 536 kts | 339° |
| 2026-05-08 12:07 | 28.51530 | 50.77323 | 33853 ft | 539 kts | 339° |
| 2026-05-08 12:07 | 28.58854 | 50.75398 | 33869 ft | 540 kts | 339° |
| 2026-05-08 12:08 | 28.66131 | 50.73488 | 33853 ft | 540 kts | 339° |
| 2026-05-08 12:08 | 28.73448 | 50.71565 | 33867 ft | 540 kts | 338° |
| 2026-05-08 12:09 | 28.80760 | 50.69637 | 33869 ft | 539 kts | 338° |
| 2026-05-08 12:09 | 28.88074 | 50.67705 | 33870 ft | 539 kts | 338° |
| 2026-05-08 12:10 | 28.95384 | 50.65773 | 33875 ft | 539 kts | 338° |
| 2026-05-08 12:10 | 29.02688 | 50.63838 | 33889 ft | 539 kts | 338° |
| 2026-05-08 12:11 | 29.10028 | 50.61888 | 33890 ft | 545 kts | 338° |
| 2026-05-08 12:11 | 29.17451 | 50.59911 | 33880 ft | 550 kts | 338° |
| 2026-05-08 12:12 | 29.24928 | 50.57923 | 33876 ft | 553 kts | 338° |
| 2026-05-08 12:12 | 29.32437 | 50.55926 | 33886 ft | 555 kts | 338° |
| 2026-05-08 12:13 | 29.39978 | 50.53916 | 33878 ft | 557 kts | 338° |
| 2026-05-08 12:13 | 29.47530 | 50.51900 | 33878 ft | 557 kts | 338° |
| 2026-05-08 12:14 | 29.55086 | 50.49879 | 33877 ft | 558 kts | 338° |
| 2026-05-08 12:14 | 29.62661 | 50.47849 | 33876 ft | 559 kts | 338° |
| 2026-05-08 12:15 | 29.70239 | 50.45816 | 33878 ft | 559 kts | 338° |
| 2026-05-08 12:15 | 29.77814 | 50.43781 | 33881 ft | 559 kts | 338° |
| 2026-05-08 12:16 | 29.85388 | 50.41741 | 33891 ft | 559 kts | 338° |
| 2026-05-08 12:16 | 29.92972 | 50.39694 | 33895 ft | 561 kts | 338° |
| 2026-05-08 12:17 | 30.00525 | 50.37653 | 33884 ft | 562 kts | 338° |
| 2026-05-08 12:17 | 30.08140 | 50.35594 | 33887 ft | 562 kts | 338° |
| 2026-05-08 12:18 | 30.15754 | 50.33533 | 33894 ft | 562 kts | 338° |
| 2026-05-08 12:18 | 30.23367 | 50.31464 | 33881 ft | 562 kts | 338° |
| 2026-05-08 12:19 | 30.30985 | 50.29391 | 33886 ft | 562 kts | 338° |
| 2026-05-08 12:19 | 30.38601 | 50.27321 | 33887 ft | 562 kts | 338° |
| 2026-05-08 12:20 | 30.46217 | 50.25246 | 33894 ft | 562 kts | 338° |
| 2026-05-08 12:20 | 30.53830 | 50.23168 | 33890 ft | 562 kts | 338° |
| 2026-05-08 12:21 | 30.61426 | 50.21091 | 33894 ft | 561 kts | 338° |
| 2026-05-08 12:21 | 30.69018 | 50.19010 | 33922 ft | 560 kts | 337° |
| 2026-05-08 12:22 | 30.76586 | 50.16936 | 33915 ft | 557 kts | 337° |
| 2026-05-08 12:22 | 30.84105 | 50.14871 | 33897 ft | 552 kts | 336° |
| 2026-05-08 12:23 | 30.91580 | 50.12798 | 33947 ft | 553 kts | 337° |
| 2026-05-08 12:23 | 30.99069 | 50.10735 | 33946 ft | 553 kts | 337° |
| 2026-05-08 12:24 | 31.06508 | 50.08689 | 33965 ft | 552 kts | 337° |
| 2026-05-08 12:24 | 31.13963 | 50.06618 | 33994 ft | 548 kts | 337° |
| 2026-05-08 12:25 | 31.21397 | 50.04549 | 33979 ft | 551 kts | 337° |
| 2026-05-08 12:25 | 31.28858 | 50.02484 | 34001 ft | 550 kts | 337° |
| 2026-05-08 12:26 | 31.36317 | 50.00415 | 33991 ft | 551 kts | 338° |
| 2026-05-08 12:26 | 31.43772 | 49.98330 | 34025 ft | 551 kts | 338° |
| 2026-05-08 12:27 | 31.51230 | 49.96255 | 34004 ft | 552 kts | 338° |
| 2026-05-08 12:27 | 31.58710 | 49.94169 | 34002 ft | 553 kts | 337° |
| 2026-05-08 12:28 | 31.66200 | 49.92077 | 34015 ft | 554 kts | 337° |
| 2026-05-08 12:28 | 31.73693 | 49.89978 | 34028 ft | 554 kts | 337° |
| 2026-05-08 12:29 | 31.81190 | 49.87872 | 34008 ft | 554 kts | 337° |
| 2026-05-08 12:29 | 31.88686 | 49.85765 | 34034 ft | 553 kts | 338° |
| 2026-05-08 12:30 | 31.96167 | 49.83658 | 34036 ft | 553 kts | 338° |
| 2026-05-08 12:30 | 32.03630 | 49.81560 | 34058 ft | 551 kts | 337° |
| 2026-05-08 12:31 | 32.11091 | 49.79446 | 34068 ft | 552 kts | 338° |
| 2026-05-08 12:31 | 32.18565 | 49.77331 | 34058 ft | 552 kts | 338° |
| 2026-05-08 12:32 | 32.26025 | 49.75211 | 34079 ft | 549 kts | 337° |
| 2026-05-08 12:32 | 32.33407 | 49.73102 | 34118 ft | 550 kts | 338° |
| 2026-05-08 12:33 | 32.40861 | 49.70987 | 34140 ft | 552 kts | 338° |
| 2026-05-08 12:33 | 32.48321 | 49.68864 | 34124 ft | 551 kts | 338° |
| 2026-05-08 12:34 | 32.55763 | 49.66736 | 34155 ft | 550 kts | 338° |
| 2026-05-08 12:34 | 32.63210 | 49.64602 | 34200 ft | 551 kts | 338° |
| 2026-05-08 12:35 | 32.70674 | 49.62468 | 34192 ft | 551 kts | 338° |
| 2026-05-08 12:35 | 32.78126 | 49.60321 | 34194 ft | 552 kts | 338° |
| 2026-05-08 12:36 | 32.85610 | 49.58167 | 34196 ft | 554 kts | 338° |
| 2026-05-08 12:36 | 32.93109 | 49.56020 | 34208 ft | 555 kts | 338° |
| 2026-05-08 12:37 | 33.00619 | 49.53858 | 34217 ft | 555 kts | 339° |
| 2026-05-08 12:37 | 33.08129 | 49.51692 | 34228 ft | 557 kts | 338° |
| 2026-05-08 12:38 | 33.15664 | 49.49507 | 34213 ft | 558 kts | 338° |
| 2026-05-08 12:38 | 33.23226 | 49.47309 | 34204 ft | 560 kts | 338° |
| 2026-05-08 12:39 | 33.30802 | 49.45107 | 34203 ft | 561 kts | 338° |
| 2026-05-08 12:39 | 33.38396 | 49.42902 | 34199 ft | 562 kts | 338° |
| 2026-05-08 12:40 | 33.45997 | 49.40686 | 34193 ft | 562 kts | 338° |
| 2026-05-08 12:40 | 33.53604 | 49.38462 | 34185 ft | 562 kts | 338° |
| 2026-05-08 12:41 | 33.61201 | 49.36239 | 34176 ft | 563 kts | 338° |
| 2026-05-08 12:41 | 33.68808 | 49.34007 | 34165 ft | 562 kts | 338° |
| 2026-05-08 12:42 | 33.76412 | 49.31773 | 34163 ft | 563 kts | 338° |
| 2026-05-08 12:42 | 33.83974 | 49.29550 | 34158 ft | 563 kts | 338° |
| 2026-05-08 12:43 | 33.91569 | 49.27314 | 34176 ft | 562 kts | 337° |
| 2026-05-08 12:43 | 33.99160 | 49.25069 | 34146 ft | 563 kts | 337° |
| 2026-05-08 12:44 | 34.06772 | 49.22818 | 34142 ft | 563 kts | 337° |
| 2026-05-08 12:44 | 34.14363 | 49.20563 | 34134 ft | 563 kts | 337° |
| 2026-05-08 12:45 | 34.21984 | 49.18297 | 34116 ft | 564 kts | 337° |
| 2026-05-08 12:45 | 34.29605 | 49.16031 | 34111 ft | 565 kts | 338° |
| 2026-05-08 12:46 | 34.37236 | 49.13761 | 34090 ft | 565 kts | 338° |
| 2026-05-08 12:46 | 34.44879 | 49.11481 | 34096 ft | 565 kts | 338° |
| 2026-05-08 12:47 | 34.52513 | 49.09197 | 34079 ft | 565 kts | 338° |
| 2026-05-08 12:47 | 34.60141 | 49.06909 | 34079 ft | 566 kts | 337° |
| 2026-05-08 12:48 | 34.67793 | 49.04608 | 34069 ft | 567 kts | 338° |
| 2026-05-08 12:48 | 34.75461 | 49.02301 | 34059 ft | 568 kts | 338° |
| 2026-05-08 12:49 | 34.83140 | 48.99986 | 34057 ft | 569 kts | 337° |
| 2026-05-08 12:49 | 34.90834 | 48.97662 | 34050 ft | 570 kts | 337° |
| 2026-05-08 12:50 | 34.98488 | 48.95347 | 34052 ft | 571 kts | 337° |
| 2026-05-08 12:50 | 35.06201 | 48.93008 | 34045 ft | 571 kts | 337° |
| 2026-05-08 12:51 | 35.17770 | 48.89492 | 34053 ft | 571 kts | 337° |
| 2026-05-08 12:52 | 35.25467 | 48.87148 | 34046 ft | 570 kts | 337° |
| 2026-05-08 12:52 | 35.37013 | 48.83623 | 34054 ft | 570 kts | 337° |
| 2026-05-08 12:53 | 35.44707 | 48.81264 | 34056 ft | 570 kts | 337° |
| 2026-05-08 12:53 | 35.52401 | 48.78903 | 34060 ft | 569 kts | 337° |
| 2026-05-08 12:54 | 35.60086 | 48.76541 | 34064 ft | 569 kts | 337° |
| 2026-05-08 12:54 | 35.66470 | 48.74574 | 34080 ft | 569 kts | 337° |
| 2026-05-08 12:55 | 35.74139 | 48.72209 | 34073 ft | 568 kts | 337° |
| 2026-05-08 12:55 | 35.81809 | 48.69837 | 34076 ft | 568 kts | 337° |
| 2026-05-08 12:56 | 35.89449 | 48.67473 | 34069 ft | 566 kts | 337° |
| 2026-05-08 12:56 | 35.97079 | 48.65104 | 34114 ft | 565 kts | 337° |
| 2026-05-08 12:57 | 36.04674 | 48.62744 | 34081 ft | 560 kts | 338° |
| 2026-05-08 12:57 | 36.12219 | 48.60394 | 34083 ft | 559 kts | 337° |
| 2026-05-08 12:58 | 36.19736 | 48.58045 | 34091 ft | 556 kts | 338° |
| 2026-05-08 12:58 | 36.27221 | 48.55703 | 34095 ft | 554 kts | 338° |
| 2026-05-08 12:59 | 36.34691 | 48.53360 | 34092 ft | 553 kts | 338° |
| 2026-05-08 12:59 | 36.42140 | 48.51019 | 34092 ft | 552 kts | 338° |
| 2026-05-08 13:00 | 36.49590 | 48.48674 | 34093 ft | 551 kts | 338° |
| 2026-05-08 13:00 | 36.56945 | 48.46356 | 34082 ft | 548 kts | 338° |
| 2026-05-08 13:01 | 36.64333 | 48.44020 | 34094 ft | 547 kts | 338° |
| 2026-05-08 13:01 | 36.71699 | 48.41692 | 34073 ft | 545 kts | 339° |
| 2026-05-08 13:02 | 36.79039 | 48.39362 | 34094 ft | 544 kts | 339° |
| 2026-05-08 13:02 | 36.86357 | 48.37036 | 34071 ft | 541 kts | 338° |
| 2026-05-08 13:03 | 36.93665 | 48.34707 | 34078 ft | 542 kts | 338° |
| 2026-05-08 13:03 | 37.00980 | 48.32370 | 34076 ft | 543 kts | 338° |
| 2026-05-08 13:04 | 37.08302 | 48.30029 | 34076 ft | 543 kts | 338° |
| 2026-05-08 13:04 | 37.15626 | 48.27682 | 34077 ft | 544 kts | 338° |
| 2026-05-08 13:05 | 37.22951 | 48.25332 | 34079 ft | 543 kts | 338° |
| 2026-05-08 13:05 | 37.30275 | 48.22980 | 34094 ft | 543 kts | 338° |
| 2026-05-08 13:06 | 37.37567 | 48.20639 | 34080 ft | 540 kts | 338° |
| 2026-05-08 13:06 | 37.44845 | 48.18282 | 34090 ft | 540 kts | 338° |
| 2026-05-08 13:07 | 37.52060 | 48.15936 | 34075 ft | 539 kts | 338° |
| 2026-05-08 13:07 | 37.59328 | 48.13581 | 34087 ft | 539 kts | 338° |
| 2026-05-08 13:08 | 37.66594 | 48.11222 | 34083 ft | 539 kts | 338° |
| 2026-05-08 13:08 | 37.73854 | 48.08860 | 34090 ft | 539 kts | 338° |
| 2026-05-08 13:09 | 37.81110 | 48.06495 | 34109 ft | 538 kts | 338° |
| 2026-05-08 13:09 | 37.88355 | 48.04129 | 34107 ft | 537 kts | 338° |
| 2026-05-08 13:10 | 37.95598 | 48.01753 | 34137 ft | 538 kts | 338° |
| 2026-05-08 13:10 | 38.02835 | 47.99376 | 34134 ft | 537 kts | 338° |
| 2026-05-08 13:11 | 38.10058 | 47.97000 | 34143 ft | 536 kts | 338° |
| 2026-05-08 13:11 | 38.17279 | 47.94621 | 34154 ft | 536 kts | 338° |
| 2026-05-08 13:12 | 38.24490 | 47.92245 | 34156 ft | 535 kts | 338° |
| 2026-05-08 13:12 | 38.31695 | 47.89860 | 34169 ft | 535 kts | 339° |
| 2026-05-08 13:13 | 38.38899 | 47.87465 | 34174 ft | 535 kts | 339° |
| 2026-05-08 13:13 | 38.46111 | 47.85068 | 34156 ft | 536 kts | 339° |
| 2026-05-08 13:14 | 38.53273 | 47.82684 | 34159 ft | 535 kts | 339° |
| 2026-05-08 13:14 | 38.60479 | 47.80280 | 34150 ft | 535 kts | 339° |
| 2026-05-08 13:15 | 38.67683 | 47.77872 | 34149 ft | 536 kts | 339° |
| 2026-05-08 13:15 | 38.74905 | 47.75452 | 34145 ft | 537 kts | 339° |
| 2026-05-08 13:16 | 38.82132 | 47.73045 | 34170 ft | 537 kts | 339° |
| 2026-05-08 13:16 | 38.89360 | 47.70703 | 34150 ft | 535 kts | 340° |
| 2026-05-08 13:17 | 38.96580 | 47.68365 | 34150 ft | 535 kts | 339° |
| 2026-05-08 13:17 | 39.03786 | 47.66016 | 34155 ft | 533 kts | 340° |
| 2026-05-08 13:18 | 39.10970 | 47.63664 | 34144 ft | 532 kts | 339° |
| 2026-05-08 13:18 | 39.18140 | 47.61309 | 34167 ft | 532 kts | 340° |
| 2026-05-08 13:19 | 39.25297 | 47.58954 | 34143 ft | 530 kts | 340° |
| 2026-05-08 13:19 | 39.32449 | 47.56596 | 34137 ft | 530 kts | 340° |
| 2026-05-08 13:20 | 39.39595 | 47.54236 | 34141 ft | 529 kts | 340° |
| 2026-05-08 13:20 | 39.46716 | 47.51881 | 34140 ft | 528 kts | 340° |
| 2026-05-08 13:21 | 39.53830 | 47.49520 | 34171 ft | 528 kts | 340° |
| 2026-05-08 13:21 | 39.60939 | 47.47157 | 34150 ft | 527 kts | 340° |
| 2026-05-08 13:22 | 39.67985 | 47.44810 | 34147 ft | 526 kts | 340° |
| 2026-05-08 13:22 | 39.75122 | 47.42428 | 34143 ft | 526 kts | 341° |
| 2026-05-08 13:23 | 39.82204 | 47.40059 | 34138 ft | 525 kts | 341° |
| 2026-05-08 13:23 | 39.89237 | 47.37701 | 34135 ft | 525 kts | 341° |
| 2026-05-08 13:24 | 39.96356 | 47.35309 | 34140 ft | 524 kts | 341° |
| 2026-05-08 13:24 | 40.03366 | 47.32949 | 34142 ft | 524 kts | 341° |
| 2026-05-08 13:25 | 40.10419 | 47.30568 | 34158 ft | 524 kts | 341° |
| 2026-05-08 13:25 | 40.17462 | 47.28187 | 34146 ft | 523 kts | 341° |
| 2026-05-08 13:26 | 40.24500 | 47.25803 | 34149 ft | 522 kts | 341° |
| 2026-05-08 13:26 | 40.31538 | 47.23412 | 34151 ft | 522 kts | 342° |
| 2026-05-08 13:27 | 40.38564 | 47.21021 | 34151 ft | 522 kts | 342° |
| 2026-05-08 13:27 | 40.45591 | 47.18625 | 34156 ft | 522 kts | 342° |
| 2026-05-08 13:28 | 40.52621 | 47.16222 | 34155 ft | 522 kts | 342° |
| 2026-05-08 13:28 | 40.59649 | 47.13815 | 34156 ft | 522 kts | 341° |
| 2026-05-08 13:29 | 40.66672 | 47.11404 | 34167 ft | 522 kts | 342° |
| 2026-05-08 13:29 | 40.73697 | 47.08988 | 34157 ft | 521 kts | 342° |
| 2026-05-08 13:30 | 40.80714 | 47.06569 | 34169 ft | 521 kts | 342° |
| 2026-05-08 13:30 | 40.87734 | 47.04143 | 34173 ft | 521 kts | 342° |
| 2026-05-08 13:31 | 40.94740 | 47.01717 | 34176 ft | 521 kts | 342° |
| 2026-05-08 13:31 | 41.01754 | 46.99283 | 34185 ft | 521 kts | 342° |
| 2026-05-08 13:32 | 41.08766 | 46.96845 | 34193 ft | 520 kts | 342° |
| 2026-05-08 13:32 | 41.15757 | 46.94408 | 34206 ft | 519 kts | 342° |
| 2026-05-08 13:33 | 41.22744 | 46.91966 | 34214 ft | 520 kts | 342° |
| 2026-05-08 13:33 | 41.29740 | 46.89516 | 34223 ft | 520 kts | 342° |
| 2026-05-08 13:34 | 41.36730 | 46.87064 | 34230 ft | 519 kts | 342° |
| 2026-05-08 13:34 | 41.43717 | 46.84607 | 34255 ft | 519 kts | 343° |
| 2026-05-08 13:35 | 41.50699 | 46.82146 | 34267 ft | 519 kts | 342° |
| 2026-05-08 13:35 | 41.57639 | 46.79695 | 34265 ft | 520 kts | 342° |
| 2026-05-08 13:36 | 41.64637 | 46.77218 | 34269 ft | 520 kts | 343° |
| 2026-05-08 13:36 | 41.71618 | 46.74741 | 34265 ft | 518 kts | 343° |
| 2026-05-08 13:37 | 41.78589 | 46.72262 | 34258 ft | 518 kts | 343° |
| 2026-05-08 13:37 | 41.85555 | 46.69779 | 34258 ft | 518 kts | 343° |
| 2026-05-08 13:38 | 41.92503 | 46.67297 | 34244 ft | 516 kts | 343° |
| 2026-05-08 13:38 | 41.99440 | 46.64813 | 34252 ft | 516 kts | 343° |
| 2026-05-08 13:39 | 42.06374 | 46.62325 | 34240 ft | 515 kts | 344° |
| 2026-05-08 13:39 | 42.13296 | 46.59836 | 34236 ft | 515 kts | 343° |
| 2026-05-08 13:40 | 42.20215 | 46.57341 | 34232 ft | 515 kts | 343° |
| 2026-05-08 13:40 | 42.27140 | 46.54837 | 34225 ft | 515 kts | 344° |
| 2026-05-08 13:41 | 42.34066 | 46.52329 | 34232 ft | 515 kts | 344° |
| 2026-05-08 13:41 | 42.40996 | 46.49815 | 34223 ft | 516 kts | 344° |
| 2026-05-08 13:42 | 42.47930 | 46.47294 | 34216 ft | 516 kts | 344° |
| 2026-05-08 13:42 | 42.54865 | 46.44765 | 34213 ft | 516 kts | 344° |
| 2026-05-08 13:43 | 42.61799 | 46.42231 | 34207 ft | 516 kts | 344° |
| 2026-05-08 13:43 | 42.67561 | 46.40121 | 34205 ft | 516 kts | 344° |
| 2026-05-08 13:44 | 42.74486 | 46.37579 | 34179 ft | 515 kts | 344° |
| 2026-05-08 13:44 | 42.81403 | 46.35034 | 34184 ft | 514 kts | 344° |
| 2026-05-08 13:45 | 42.88310 | 46.32487 | 34176 ft | 515 kts | 345° |
| 2026-05-08 13:45 | 42.95236 | 46.29927 | 34178 ft | 516 kts | 344° |
| 2026-05-08 13:46 | 43.02166 | 46.27359 | 34156 ft | 516 kts | 345° |
| 2026-05-08 13:46 | 43.09083 | 46.24791 | 34154 ft | 515 kts | 345° |
| 2026-05-08 13:47 | 43.15999 | 46.22218 | 34131 ft | 515 kts | 345° |
| 2026-05-08 13:47 | 43.22923 | 46.19634 | 34134 ft | 516 kts | 345° |
| 2026-05-08 13:48 | 43.29791 | 46.17066 | 34124 ft | 514 kts | 345° |
| 2026-05-08 13:48 | 43.36680 | 46.14484 | 34133 ft | 513 kts | 345° |
| 2026-05-08 13:49 | 43.43573 | 46.11894 | 34114 ft | 515 kts | 345° |
| 2026-05-08 13:49 | 43.50481 | 46.09293 | 34116 ft | 514 kts | 346° |
| 2026-05-08 13:50 | 43.57365 | 46.06694 | 34115 ft | 512 kts | 345° |
| 2026-05-08 13:50 | 43.64227 | 46.04097 | 34112 ft | 511 kts | 346° |
| 2026-05-08 13:51 | 43.71088 | 46.01496 | 34109 ft | 511 kts | 346° |
| 2026-05-08 13:51 | 43.77932 | 45.98894 | 34105 ft | 509 kts | 346° |
| 2026-05-08 13:52 | 43.84764 | 45.96291 | 34103 ft | 509 kts | 346° |
| 2026-05-08 13:52 | 43.91593 | 45.93683 | 34095 ft | 509 kts | 346° |
| 2026-05-08 13:53 | 43.98407 | 45.91075 | 34101 ft | 507 kts | 346° |
| 2026-05-08 13:53 | 44.05205 | 45.88465 | 34092 ft | 507 kts | 346° |
| 2026-05-08 13:54 | 44.11996 | 45.85852 | 34095 ft | 506 kts | 346° |
| 2026-05-08 13:54 | 44.18782 | 45.83236 | 34086 ft | 505 kts | 346° |
| 2026-05-08 13:55 | 44.25553 | 45.80619 | 34087 ft | 505 kts | 346° |
| 2026-05-08 13:56 | 44.35702 | 45.76684 | 34079 ft | 505 kts | 346° |
| 2026-05-08 13:56 | 44.42470 | 45.74052 | 34080 ft | 504 kts | 346° |
| 2026-05-08 13:57 | 44.49224 | 45.71419 | 34076 ft | 504 kts | 346° |
| 2026-05-08 13:57 | 44.55930 | 45.68799 | 34079 ft | 504 kts | 346° |
| 2026-05-08 13:58 | 44.62677 | 45.66156 | 34072 ft | 503 kts | 346° |
| 2026-05-08 13:58 | 44.69423 | 45.63508 | 34067 ft | 503 kts | 346° |
| 2026-05-08 13:59 | 44.76168 | 45.60853 | 34062 ft | 503 kts | 346° |
| 2026-05-08 13:59 | 44.82901 | 45.58196 | 34061 ft | 502 kts | 346° |
| 2026-05-08 14:00 | 44.89612 | 45.55542 | 34057 ft | 500 kts | 346° |
| 2026-05-08 14:00 | 44.96312 | 45.52886 | 34058 ft | 500 kts | 346° |
| 2026-05-08 14:01 | 45.03013 | 45.50223 | 34051 ft | 500 kts | 345° |
| 2026-05-08 14:01 | 45.09715 | 45.47553 | 34050 ft | 500 kts | 346° |
| 2026-05-08 14:02 | 45.16403 | 45.44883 | 34046 ft | 499 kts | 346° |
| 2026-05-08 14:02 | 45.23087 | 45.42208 | 34041 ft | 499 kts | 346° |
| 2026-05-08 14:03 | 45.29779 | 45.39522 | 34041 ft | 500 kts | 345° |
| 2026-05-08 14:03 | 45.36482 | 45.36823 | 34043 ft | 500 kts | 346° |
| 2026-05-08 14:04 | 45.43171 | 45.34127 | 34041 ft | 499 kts | 345° |
| 2026-05-08 14:04 | 45.49845 | 45.31429 | 34039 ft | 497 kts | 345° |
| 2026-05-08 14:05 | 45.56437 | 45.28756 | 34038 ft | 495 kts | 345° |
| 2026-05-08 14:05 | 45.63050 | 45.26069 | 34039 ft | 494 kts | 345° |
| 2026-05-08 14:06 | 45.69665 | 45.23376 | 34036 ft | 494 kts | 345° |
| 2026-05-08 14:06 | 45.76284 | 45.20675 | 34036 ft | 494 kts | 344° |
| 2026-05-08 14:07 | 45.82888 | 45.17971 | 34031 ft | 493 kts | 344° |
| 2026-05-08 14:07 | 45.89473 | 45.15270 | 34035 ft | 493 kts | 344° |
| 2026-05-08 14:08 | 45.96065 | 45.12558 | 34029 ft | 494 kts | 344° |
| 2026-05-08 14:08 | 46.02649 | 45.09843 | 34028 ft | 484 kts | 344° |
| 2026-05-08 14:09 | 46.09010 | 45.07213 | 34027 ft | 471 kts | 344° |
| 2026-05-08 14:09 | 46.15285 | 45.04613 | 34022 ft | 470 kts | 344° |
| 2026-05-08 14:10 | 46.21574 | 45.02002 | 34025 ft | 471 kts | 344° |
| 2026-05-08 14:10 | 46.27872 | 44.99380 | 34023 ft | 470 kts | 344° |
| 2026-05-08 14:11 | 46.34159 | 44.96756 | 34022 ft | 469 kts | 344° |
| 2026-05-08 14:11 | 46.40432 | 44.94132 | 34020 ft | 470 kts | 345° |
| 2026-05-08 14:12 | 46.46714 | 44.91499 | 34021 ft | 471 kts | 344° |
| 2026-05-08 14:12 | 46.53005 | 44.88854 | 34024 ft | 470 kts | 345° |
| 2026-05-08 14:13 | 46.59259 | 44.86218 | 34017 ft | 468 kts | 345° |
| 2026-05-08 14:13 | 46.65520 | 44.83574 | 34024 ft | 469 kts | 345° |
| 2026-05-08 14:14 | 46.71802 | 44.80916 | 34022 ft | 470 kts | 344° |
| 2026-05-08 14:14 | 46.78083 | 44.78250 | 34031 ft | 470 kts | 345° |
| 2026-05-08 14:15 | 46.84314 | 44.75599 | 34023 ft | 468 kts | 344° |
| 2026-05-08 14:15 | 46.90576 | 44.72929 | 34028 ft | 469 kts | 344° |
| 2026-05-08 14:16 | 46.96856 | 44.70245 | 34020 ft | 471 kts | 344° |
| 2026-05-08 14:16 | 47.03138 | 44.67552 | 34029 ft | 470 kts | 344° |
| 2026-05-08 14:17 | 47.09406 | 44.64859 | 34024 ft | 469 kts | 344° |
| 2026-05-08 14:17 | 47.15675 | 44.62160 | 34022 ft | 470 kts | 344° |
| 2026-05-08 14:18 | 47.21961 | 44.59447 | 34024 ft | 472 kts | 344° |
| 2026-05-08 14:18 | 47.28250 | 44.56724 | 34023 ft | 471 kts | 344° |
| 2026-05-08 14:19 | 47.34519 | 44.54004 | 34025 ft | 469 kts | 344° |
| 2026-05-08 14:19 | 47.40805 | 44.51271 | 34016 ft | 471 kts | 344° |
| 2026-05-08 14:20 | 47.47105 | 44.48524 | 34021 ft | 472 kts | 344° |
| 2026-05-08 14:20 | 47.53357 | 44.45791 | 34015 ft | 472 kts | 344° |
| 2026-05-08 14:21 | 47.59645 | 44.43035 | 34019 ft | 471 kts | 344° |
| 2026-05-08 14:21 | 47.65945 | 44.40268 | 34020 ft | 473 kts | 344° |
| 2026-05-08 14:22 | 47.72260 | 44.37487 | 34018 ft | 473 kts | 344° |
| 2026-05-08 14:22 | 47.78566 | 44.34703 | 34015 ft | 473 kts | 344° |
| 2026-05-08 14:23 | 47.84873 | 44.31911 | 34011 ft | 472 kts | 344° |
| 2026-05-08 14:23 | 47.91164 | 44.29118 | 34010 ft | 471 kts | 343° |
| 2026-05-08 14:24 | 47.97450 | 44.26323 | 34009 ft | 471 kts | 343° |
| 2026-05-08 14:24 | 48.03736 | 44.23519 | 34004 ft | 471 kts | 343° |
| 2026-05-08 14:25 | 48.10016 | 44.20710 | 34008 ft | 470 kts | 343° |
| 2026-05-08 14:25 | 48.16285 | 44.17900 | 34004 ft | 470 kts | 343° |
| 2026-05-08 14:26 | 48.22549 | 44.15084 | 34005 ft | 470 kts | 343° |
| 2026-05-08 14:26 | 48.28813 | 44.12262 | 34000 ft | 470 kts | 343° |
| 2026-05-08 14:27 | 48.35074 | 44.09434 | 34000 ft | 470 kts | 343° |
| 2026-05-08 14:27 | 48.41339 | 44.06597 | 33996 ft | 470 kts | 343° |
| 2026-05-08 14:28 | 48.47606 | 44.03750 | 33989 ft | 471 kts | 343° |
| 2026-05-08 14:28 | 48.53875 | 44.00896 | 33990 ft | 470 kts | 343° |
| 2026-05-08 14:29 | 48.60140 | 43.98036 | 33987 ft | 470 kts | 343° |
| 2026-05-08 14:29 | 48.66366 | 43.95187 | 33991 ft | 471 kts | 343° |
| 2026-05-08 14:30 | 48.72635 | 43.92311 | 33985 ft | 471 kts | 343° |
| 2026-05-08 14:30 | 48.78905 | 43.89426 | 33981 ft | 471 kts | 343° |
| 2026-05-08 14:31 | 48.85176 | 43.86533 | 33983 ft | 470 kts | 343° |
| 2026-05-08 14:31 | 48.91439 | 43.83638 | 33978 ft | 471 kts | 343° |
| 2026-05-08 14:32 | 49.00845 | 43.79274 | 33978 ft | 471 kts | 343° |
| 2026-05-08 14:32 | 49.07115 | 43.76355 | 33968 ft | 471 kts | 343° |
| 2026-05-08 14:33 | 49.13381 | 43.73430 | 33971 ft | 471 kts | 343° |
| 2026-05-08 14:33 | 49.18592 | 43.70993 | 33971 ft | 471 kts | 343° |
| 2026-05-08 14:34 | 49.24863 | 43.68052 | 33963 ft | 471 kts | 343° |
| 2026-05-08 14:34 | 49.31130 | 43.65104 | 33969 ft | 471 kts | 343° |
| 2026-05-08 14:35 | 49.37398 | 43.62149 | 33960 ft | 471 kts | 343° |
| 2026-05-08 14:35 | 49.43668 | 43.59186 | 33964 ft | 471 kts | 343° |
| 2026-05-08 14:36 | 49.49929 | 43.56218 | 33961 ft | 471 kts | 343° |
| 2026-05-08 14:36 | 49.56195 | 43.53239 | 33961 ft | 471 kts | 343° |
| 2026-05-08 14:37 | 49.62451 | 43.50257 | 33957 ft | 470 kts | 343° |
| 2026-05-08 14:37 | 49.68693 | 43.47275 | 33958 ft | 470 kts | 343° |
| 2026-05-08 14:38 | 49.74934 | 43.44285 | 33962 ft | 470 kts | 343° |
| 2026-05-08 14:38 | 49.81181 | 43.41284 | 33958 ft | 470 kts | 343° |
| 2026-05-08 14:39 | 49.87381 | 43.38297 | 33957 ft | 469 kts | 343° |
| 2026-05-08 14:39 | 49.93596 | 43.35295 | 33958 ft | 468 kts | 343° |
| 2026-05-08 14:40 | 49.99818 | 43.32282 | 33954 ft | 468 kts | 343° |
| 2026-05-08 14:40 | 50.06051 | 43.29255 | 33954 ft | 469 kts | 343° |
| 2026-05-08 14:41 | 50.12279 | 43.26222 | 33956 ft | 469 kts | 343° |
| 2026-05-08 14:41 | 50.18487 | 43.23190 | 33952 ft | 467 kts | 343° |
| 2026-05-08 14:42 | 50.24691 | 43.20152 | 33956 ft | 467 kts | 343° |
| 2026-05-08 14:42 | 50.30908 | 43.17100 | 33956 ft | 469 kts | 343° |
| 2026-05-08 14:43 | 50.37127 | 43.14038 | 33955 ft | 468 kts | 343° |
| 2026-05-08 14:43 | 50.43331 | 43.10975 | 33954 ft | 466 kts | 343° |
| 2026-05-08 14:44 | 50.49518 | 43.07912 | 33957 ft | 467 kts | 343° |
| 2026-05-08 14:44 | 50.55717 | 43.04835 | 33956 ft | 468 kts | 343° |
| 2026-05-08 14:45 | 50.61931 | 43.01742 | 33952 ft | 468 kts | 342° |
| 2026-05-08 14:45 | 50.68144 | 42.98640 | 33956 ft | 469 kts | 343° |
| 2026-05-08 14:46 | 50.74354 | 42.95531 | 33958 ft | 469 kts | 342° |
| 2026-05-08 14:46 | 50.80539 | 42.92427 | 33960 ft | 469 kts | 342° |
| 2026-05-08 14:47 | 50.86814 | 42.89268 | 33956 ft | 470 kts | 343° |
| 2026-05-08 14:47 | 50.92998 | 42.86147 | 33956 ft | 470 kts | 342° |
| 2026-05-08 14:48 | 50.99209 | 42.83002 | 33957 ft | 468 kts | 342° |
| 2026-05-08 14:48 | 51.05411 | 42.79855 | 33961 ft | 468 kts | 342° |
| 2026-05-08 14:49 | 51.11630 | 42.76690 | 33958 ft | 471 kts | 342° |
| 2026-05-08 14:49 | 51.17855 | 42.73511 | 33955 ft | 469 kts | 342° |
| 2026-05-08 14:50 | 51.24058 | 42.70335 | 33960 ft | 467 kts | 342° |
| 2026-05-08 14:50 | 51.30244 | 42.67160 | 33962 ft | 468 kts | 342° |
| 2026-05-08 14:51 | 51.36449 | 42.63965 | 33960 ft | 468 kts | 342° |
| 2026-05-08 14:51 | 51.42661 | 42.60758 | 33951 ft | 469 kts | 342° |
| 2026-05-08 14:52 | 51.51931 | 42.55953 | 33959 ft | 465 kts | 342° |
| 2026-05-08 14:53 | 51.58090 | 42.52751 | 33962 ft | 466 kts | 342° |
| 2026-05-08 14:53 | 51.64262 | 42.49533 | 33962 ft | 468 kts | 342° |
| 2026-05-08 14:54 | 51.70453 | 42.46295 | 33956 ft | 467 kts | 342° |
| 2026-05-08 14:54 | 51.76629 | 42.43055 | 33971 ft | 466 kts | 342° |
| 2026-05-08 14:55 | 51.82732 | 42.39845 | 33967 ft | 464 kts | 342° |
| 2026-05-08 14:55 | 51.88885 | 42.36599 | 33961 ft | 466 kts | 342° |
| 2026-05-08 14:56 | 51.95067 | 42.33329 | 33961 ft | 469 kts | 342° |
| 2026-05-08 14:56 | 52.01250 | 42.30048 | 33962 ft | 467 kts | 342° |
| 2026-05-08 14:57 | 52.07408 | 42.26770 | 33967 ft | 465 kts | 342° |
| 2026-05-08 14:57 | 52.13561 | 42.23486 | 33963 ft | 467 kts | 342° |
| 2026-05-08 14:58 | 52.19724 | 42.20188 | 33962 ft | 467 kts | 342° |
| 2026-05-08 14:58 | 52.25906 | 42.16870 | 33959 ft | 467 kts | 342° |
| 2026-05-08 14:59 | 52.32085 | 42.13544 | 33963 ft | 468 kts | 341° |
| 2026-05-08 14:59 | 52.41338 | 42.08543 | 33966 ft | 468 kts | 341° |
| 2026-05-08 15:00 | 52.47528 | 42.05185 | 33963 ft | 469 kts | 341° |
| 2026-05-08 15:00 | 52.53721 | 42.01817 | 33958 ft | 468 kts | 341° |
| 2026-05-08 15:01 | 52.59913 | 41.98440 | 33961 ft | 469 kts | 341° |
| 2026-05-08 15:01 | 52.66096 | 41.95056 | 33962 ft | 468 kts | 341° |
| 2026-05-08 15:02 | 52.72287 | 41.91658 | 33964 ft | 469 kts | 341° |
| 2026-05-08 15:02 | 52.78497 | 41.88239 | 33961 ft | 471 kts | 340° |
| 2026-05-08 15:03 | 52.84705 | 41.84811 | 33959 ft | 470 kts | 340° |
| 2026-05-08 15:03 | 52.90905 | 41.81379 | 33957 ft | 469 kts | 340° |
| 2026-05-08 15:04 | 52.97093 | 41.77941 | 33961 ft | 470 kts | 340° |
| 2026-05-08 15:04 | 53.03290 | 41.74487 | 33957 ft | 470 kts | 340° |
| 2026-05-08 15:05 | 53.09503 | 41.71016 | 33959 ft | 471 kts | 339° |
| 2026-05-08 15:05 | 53.15697 | 41.67544 | 33964 ft | 469 kts | 339° |
| 2026-05-08 15:06 | 53.21884 | 41.64065 | 33964 ft | 469 kts | 339° |
| 2026-05-08 15:06 | 53.28072 | 41.60573 | 33967 ft | 469 kts | 340° |
| 2026-05-08 15:07 | 53.34223 | 41.57093 | 33966 ft | 470 kts | 340° |
| 2026-05-08 15:07 | 53.40417 | 41.53579 | 33971 ft | 470 kts | 339° |
| 2026-05-08 15:08 | 53.45607 | 41.50625 | 33973 ft | 470 kts | 339° |
| 2026-05-08 15:08 | 53.52807 | 41.46515 | 33984 ft | 470 kts | 339° |
| 2026-05-08 15:09 | 53.58998 | 41.42969 | 33986 ft | 470 kts | 339° |
| 2026-05-08 15:09 | 53.65192 | 41.39410 | 33998 ft | 470 kts | 339° |
| 2026-05-08 15:10 | 53.71407 | 41.35827 | 34058 ft | 474 kts | 339° |
| 2026-05-08 15:10 | 53.74527 | 41.34024 | 34271 ft | 474 kts | 339° |
| 2026-05-08 15:10 | 53.77646 | 41.32220 | 34501 ft | 473 kts | 339° |
| 2026-05-08 15:11 | 53.80756 | 41.30419 | 34712 ft | 473 kts | 339° |
| 2026-05-08 15:11 | 53.83866 | 41.28614 | 34922 ft | 472 kts | 339° |
| 2026-05-08 15:11 | 53.86978 | 41.26805 | 35101 ft | 472 kts | 339° |
| 2026-05-08 15:11 | 53.90082 | 41.24998 | 35291 ft | 472 kts | 339° |
| 2026-05-08 15:12 | 53.93186 | 41.23188 | 35466 ft | 472 kts | 339° |
| 2026-05-08 15:12 | 53.96287 | 41.21378 | 35705 ft | 470 kts | 338° |
| 2026-05-08 15:12 | 53.99372 | 41.19574 | 35914 ft | 469 kts | 338° |
| 2026-05-08 15:12 | 54.02464 | 41.17762 | 36008 ft | 471 kts | 338° |
| 2026-05-08 15:13 | 54.08701 | 41.14095 | 36011 ft | 477 kts | 338° |
| 2026-05-08 15:13 | 54.14968 | 41.10402 | 36007 ft | 476 kts | 338° |
| 2026-05-08 15:14 | 54.21223 | 41.06706 | 36008 ft | 476 kts | 338° |
| 2026-05-08 15:14 | 54.27477 | 41.02999 | 36009 ft | 476 kts | 338° |
| 2026-05-08 15:15 | 54.33695 | 40.99299 | 36015 ft | 476 kts | 338° |
| 2026-05-08 15:15 | 54.39956 | 40.95563 | 36029 ft | 476 kts | 338° |
| 2026-05-08 15:16 | 54.46208 | 40.91819 | 36025 ft | 476 kts | 338° |
| 2026-05-08 15:16 | 54.52471 | 40.88057 | 36036 ft | 476 kts | 338° |
| 2026-05-08 15:17 | 54.58733 | 40.84283 | 36037 ft | 478 kts | 338° |
| 2026-05-08 15:17 | 54.65009 | 40.80489 | 36037 ft | 478 kts | 338° |
| 2026-05-08 15:18 | 54.71282 | 40.76683 | 36037 ft | 478 kts | 338° |
| 2026-05-08 15:18 | 54.77552 | 40.72868 | 36045 ft | 478 kts | 338° |
| 2026-05-08 15:19 | 54.83822 | 40.69039 | 36046 ft | 478 kts | 337° |
| 2026-05-08 15:19 | 54.90091 | 40.65199 | 36060 ft | 478 kts | 337° |
| 2026-05-08 15:20 | 54.96364 | 40.61342 | 36056 ft | 478 kts | 337° |
| 2026-05-08 15:20 | 55.02639 | 40.57472 | 36064 ft | 478 kts | 337° |
| 2026-05-08 15:21 | 55.08912 | 40.53591 | 36064 ft | 478 kts | 337° |
| 2026-05-08 15:21 | 55.15186 | 40.49699 | 36072 ft | 478 kts | 336° |
| 2026-05-08 15:22 | 55.21458 | 40.45791 | 36070 ft | 478 kts | 336° |
| 2026-05-08 15:22 | 55.27727 | 40.41873 | 36077 ft | 478 kts | 336° |
| 2026-05-08 15:23 | 55.32938 | 40.38606 | 36078 ft | 478 kts | 336° |
| 2026-05-08 15:23 | 55.40208 | 40.34034 | 36095 ft | 477 kts | 336° |
| 2026-05-08 15:24 | 55.45427 | 40.30742 | 36083 ft | 474 kts | 335° |
| 2026-05-08 15:24 | 55.51628 | 40.26815 | 36092 ft | 473 kts | 335° |
| 2026-05-08 15:25 | 55.57820 | 40.22879 | 36100 ft | 473 kts | 335° |
| 2026-05-08 15:25 | 55.64015 | 40.18930 | 36100 ft | 473 kts | 335° |
| 2026-05-08 15:26 | 55.70204 | 40.14972 | 36121 ft | 473 kts | 335° |
| 2026-05-08 15:26 | 55.76341 | 40.11035 | 36105 ft | 471 kts | 335° |
| 2026-05-08 15:27 | 55.82505 | 40.07068 | 36109 ft | 470 kts | 335° |
| 2026-05-08 15:27 | 55.88649 | 40.03100 | 36103 ft | 470 kts | 335° |
| 2026-05-08 15:28 | 55.94790 | 39.99118 | 36116 ft | 469 kts | 335° |
| 2026-05-08 15:28 | 56.00929 | 39.95126 | 36122 ft | 469 kts | 334° |
| 2026-05-08 15:29 | 56.07049 | 39.91133 | 36122 ft | 468 kts | 334° |
| 2026-05-08 15:29 | 56.13158 | 39.87133 | 36122 ft | 467 kts | 334° |
| 2026-05-08 15:30 | 56.19260 | 39.83123 | 36133 ft | 467 kts | 334° |
| 2026-05-08 15:30 | 56.25363 | 39.79100 | 36130 ft | 467 kts | 334° |
| 2026-05-08 15:31 | 56.31460 | 39.75067 | 36143 ft | 466 kts | 334° |
| 2026-05-08 15:31 | 56.37542 | 39.71030 | 36136 ft | 465 kts | 334° |
| 2026-05-08 15:32 | 56.43610 | 39.66989 | 36141 ft | 465 kts | 334° |
| 2026-05-08 15:32 | 56.49676 | 39.62934 | 36140 ft | 465 kts | 334° |
| 2026-05-08 15:33 | 56.55740 | 39.58868 | 36144 ft | 465 kts | 334° |
| 2026-05-08 15:33 | 56.61801 | 39.54790 | 36148 ft | 464 kts | 334° |
| 2026-05-08 15:34 | 56.67808 | 39.50737 | 36148 ft | 463 kts | 334° |
| 2026-05-08 15:34 | 56.73841 | 39.46650 | 36157 ft | 462 kts | 333° |
| 2026-05-08 15:35 | 56.79867 | 39.42554 | 36148 ft | 462 kts | 333° |
| 2026-05-08 15:35 | 56.85887 | 39.38446 | 36148 ft | 462 kts | 333° |
| 2026-05-08 15:36 | 56.91908 | 39.34324 | 36168 ft | 462 kts | 333° |
| 2026-05-08 15:36 | 56.97914 | 39.30200 | 36153 ft | 460 kts | 333° |
| 2026-05-08 15:37 | 57.03900 | 39.26073 | 36153 ft | 460 kts | 333° |
| 2026-05-08 15:37 | 57.09890 | 39.21930 | 36159 ft | 460 kts | 333° |
| 2026-05-08 15:38 | 57.15875 | 39.17776 | 36154 ft | 460 kts | 333° |
| 2026-05-08 15:38 | 57.21858 | 39.13610 | 36178 ft | 460 kts | 332° |
| 2026-05-08 15:39 | 57.27825 | 39.09442 | 36162 ft | 458 kts | 332° |
| 2026-05-08 15:39 | 57.33785 | 39.05262 | 36157 ft | 458 kts | 332° |
| 2026-05-08 15:40 | 57.39737 | 39.01073 | 36159 ft | 458 kts | 332° |
| 2026-05-08 15:40 | 57.45690 | 38.96869 | 36159 ft | 458 kts | 332° |
| 2026-05-08 15:41 | 57.51643 | 38.92650 | 36157 ft | 458 kts | 332° |
| 2026-05-08 15:41 | 57.57588 | 38.88423 | 36163 ft | 457 kts | 332° |
| 2026-05-08 15:42 | 57.63487 | 38.84213 | 36153 ft | 457 kts | 332° |
| 2026-05-08 15:42 | 57.69424 | 38.79961 | 36155 ft | 457 kts | 332° |
| 2026-05-08 15:43 | 57.75370 | 38.75688 | 36158 ft | 458 kts | 332° |
| 2026-05-08 15:43 | 57.81308 | 38.71407 | 36159 ft | 458 kts | 332° |
| 2026-05-08 15:44 | 57.87250 | 38.67107 | 36158 ft | 457 kts | 332° |
| 2026-05-08 15:44 | 57.93186 | 38.62796 | 36158 ft | 457 kts | 332° |
| 2026-05-08 15:45 | 57.99124 | 38.58468 | 36159 ft | 457 kts | 332° |
| 2026-05-08 15:45 | 58.05054 | 38.54130 | 36160 ft | 457 kts | 332° |
| 2026-05-08 15:46 | 58.10988 | 38.49775 | 36158 ft | 457 kts | 332° |